Time;durP1;ratioP1;P1;durP2;ratioP2;P2;SDS_P1;SDS_P2;PMS_P1;PMS_P2;Temp;Humidity;BMP_temperature;BMP_pressure;BME280_temperature;BME280_humidity;BME280_pressure;Samples;Min_cycle;Max_cycle;Signal;HPM_P1;HPM_P2
2022/03/30 00:01:55;;;;;;;33.25;13.60;;;;;;;5.44;69.48;100730.03;5133045;27;20488;-67
2022/03/30 00:04:22;;;;;;;30.27;13.63;;;;;;;5.39;69.77;100731.81;5131235;27;20039;-68
2022/03/30 00:06:49;;;;;;;31.75;13.75;;;;;;;5.35;70.06;100719.63;5132080;27;20043;-68
2022/03/30 00:09:16;;;;;;;33.55;13.70;;;;;;;5.29;70.37;100721.44;5126838;27;20168;-69
2022/03/30 00:11:44;;;;;;;31.55;13.73;;;;;;;5.24;70.47;100722.38;5133697;27;20043;-68
2022/03/30 00:14:11;;;;;;;32.80;13.52;;;;;;;5.20;70.91;100718.03;5130817;27;20043;-68
2022/03/30 00:16:40;;;;;;;28.80;13.57;;;;;;;5.16;70.93;100718.97;5128682;27;20096;-67
2022/03/30 00:19:08;;;;;;;30.05;14.05;;;;;;;5.12;71.23;100718.16;5125444;27;20064;-67
2022/03/30 00:21:37;;;;;;;32.55;13.85;;;;;;;5.09;71.39;100726.84;5124613;27;20052;-67
2022/03/30 00:24:05;;;;;;;32.67;14.35;;;;;;;5.04;71.36;100719.94;5123922;27;20516;-66
2022/03/30 00:26:33;;;;;;;31.75;13.25;;;;;;;4.99;71.52;100712.16;5127009;27;20050;-67
2022/03/30 00:29:06;;;;;;;29.10;13.65;;;;;;;4.93;71.54;100713.09;5132481;27;20042;-68
2022/03/30 00:31:33;;;;;;;26.80;13.07;;;;;;;4.91;72.05;100708.75;5132928;27;20047;-68
2022/03/30 00:34:00;;;;;;;35.58;13.80;;;;;;;4.86;71.89;100706.16;5131249;27;20040;-67
2022/03/30 00:36:29;;;;;;;29.95;13.65;;;;;;;4.84;72.09;100704.47;5127605;27;20068;-66
2022/03/30 00:38:56;;;;;;;27.10;13.30;;;;;;;4.81;72.27;100711.44;5122409;27;20119;-67
2022/03/30 00:41:28;;;;;;;29.92;13.73;;;;;;;4.79;72.02;100707.13;5124002;27;20487;-68
2022/03/30 00:43:55;;;;;;;27.00;13.38;;;;;;;4.76;72.11;100704.53;5123203;27;20040;-67
2022/03/30 00:46:22;;;;;;;29.75;14.20;;;;;;;4.76;72.20;100702.78;5124386;27;20040;-66
2022/03/30 00:48:49;;;;;;;29.95;12.85;;;;;;;4.77;72.02;100696.69;5125076;27;20101;-66
2022/03/30 00:51:16;;;;;;;30.48;13.60;;;;;;;4.79;72.39;100696.66;5127883;27;20047;-67
2022/03/30 00:53:43;;;;;;;31.58;13.75;;;;;;;4.78;72.55;100689.72;5125645;27;20044;-68
2022/03/30 00:56:11;;;;;;;28.33;13.82;;;;;;;4.76;72.35;100692.34;5125155;27;20063;-69
2022/03/30 00:58:40;;;;;;;31.92;13.60;;;;;;;4.73;72.49;100692.34;5124667;27;20036;-67
2022/03/30 01:01:08;;;;;;;32.85;12.95;;;;;;;4.67;72.63;100692.44;5130225;27;20067;-67
2022/03/30 01:03:36;;;;;;;32.38;13.63;;;;;;;4.64;72.79;100689.81;5122636;27;20802;-66
2022/03/30 01:06:03;;;;;;;27.08;13.82;;;;;;;4.60;72.76;100689.00;5127946;27;20035;-68
2022/03/30 01:08:30;;;;;;;32.22;13.50;;;;;;;4.58;73.10;100684.66;5128903;27;20792;-68
2022/03/30 01:11:00;;;;;;;36.67;13.75;;;;;;;4.56;73.12;100678.59;5129947;27;20038;-67
2022/03/30 01:13:28;;;;;;;31.90;14.57;;;;;;;4.55;73.18;100680.31;5121180;27;20040;-66
2022/03/30 01:16:15;;;;;;;28.73;13.73;;;;;;;4.57;73.09;100677.72;5120484;27;20041;-67
2022/03/30 01:18:42;;;;;;;37.13;13.38;;;;;;;4.55;73.17;100671.63;5132878;27;20081;-67
2022/03/30 01:21:09;;;;;;;33.13;13.05;;;;;;;4.57;73.10;100669.88;5126607;27;20047;-68
2022/03/30 01:23:36;;;;;;;33.45;13.98;;;;;;;4.56;73.05;100671.59;5130568;27;20036;-68
2022/03/30 01:26:04;;;;;;;31.48;14.15;;;;;;;4.55;73.07;100661.19;5125528;27;20044;-68
2022/03/30 01:28:33;;;;;;;34.08;13.93;;;;;;;4.53;73.11;100668.16;5131287;27;20079;-66
2022/03/30 01:33:48;;;;;;;30.63;13.63;;;;;;;4.46;73.06;100660.38;5122683;27;20047;-66
2022/03/30 01:36:18;;;;;;;33.08;14.05;;;;;;;4.41;73.02;100656.94;5123608;27;20055;-66
2022/03/30 01:38:45;;;;;;;31.73;13.40;;;;;;;4.34;73.51;100652.63;5123829;27;20048;-66
2022/03/30 01:41:13;;;;;;;32.05;13.57;;;;;;;4.29;73.45;100655.28;5115546;27;20032;-67
2022/03/30 01:43:40;;;;;;;38.08;14.10;;;;;;;4.22;73.44;100653.59;5127947;27;20780;-66
2022/03/30 01:46:08;;;;;;;31.02;13.25;;;;;;;4.17;73.98;100652.75;5128403;27;20039;-68
2022/03/30 01:48:35;;;;;;;29.50;13.20;;;;;;;4.12;73.91;100657.16;5131111;27;20043;-68
2022/03/30 01:51:02;;;;;;;29.13;13.05;;;;;;;4.07;73.96;100657.16;5125156;27;20541;-68
2022/03/30 01:53:29;;;;;;;28.17;13.57;;;;;;;4.02;73.94;100651.13;5125942;27;20093;-67
2022/03/30 01:55:57;;;;;;;31.38;13.57;;;;;;;3.99;74.09;100640.69;5129334;27;20043;-67
2022/03/30 01:58:24;;;;;;;38.20;13.52;;;;;;;3.98;74.34;100647.66;5128592;27;20067;-67
2022/03/30 02:00:51;;;;;;;33.95;13.55;;;;;;;3.96;74.13;100648.56;5128828;27;20040;-67
2022/03/30 02:03:19;;;;;;;28.25;13.02;;;;;;;3.94;74.18;100650.31;5129520;27;20089;-68
2022/03/30 02:05:46;;;;;;;32.95;13.32;;;;;;;3.89;74.33;100643.34;5128466;27;20507;-67
2022/03/30 02:08:14;;;;;;;37.47;14.15;;;;;;;3.91;74.32;100639.88;5148882;27;20040;-69
2022/03/30 02:10:41;;;;;;;36.33;13.43;;;;;;;3.91;74.46;100642.47;5138008;27;20047;-65
2022/03/30 02:13:10;;;;;;;32.95;13.02;;;;;;;3.92;74.42;100639.00;5137234;27;20042;-65
2022/03/30 02:15:38;;;;;;;30.55;13.00;;;;;;;3.92;74.28;100633.78;5137885;27;20047;-67
2022/03/30 02:18:06;;;;;;;31.15;13.82;;;;;;;3.93;74.41;100623.34;5136511;27;20048;-67
2022/03/30 02:20:33;;;;;;;27.58;13.25;;;;;;;3.92;74.36;100620.75;5131801;27;20073;-66
2022/03/30 02:23:00;;;;;;;28.08;14.07;;;;;;;3.90;74.28;100623.38;5127049;27;20036;-65
2022/03/30 02:25:27;;;;;;;28.55;13.25;;;;;;;3.85;74.28;100615.56;5130462;27;20043;-66
2022/03/30 02:27:54;;;;;;;29.52;12.00;;;;;;;3.82;74.52;100612.97;5131323;27;20046;-65
2022/03/30 02:30:21;;;;;;;32.63;12.75;;;;;;;3.75;74.43;100606.09;5122827;27;20044;-65
2022/03/30 02:32:48;;;;;;;31.20;12.80;;;;;;;3.69;74.38;100617.41;5121735;27;20045;-64
2022/03/30 02:35:17;;;;;;;29.98;13.02;;;;;;;3.63;74.89;100608.75;5120212;27;20056;-65
2022/03/30 02:37:44;;;;;;;35.20;13.60;;;;;;;3.57;74.97;100607.03;5127989;27;20051;-65
2022/03/30 02:40:11;;;;;;;29.98;12.85;;;;;;;3.54;75.08;100607.03;5128979;27;20039;-63
2022/03/30 02:42:39;;;;;;;37.83;13.43;;;;;;;3.52;75.38;100608.78;5124533;27;20051;-63
2022/03/30 02:45:07;;;;;;;28.45;13.65;;;;;;;3.49;75.34;100596.66;5123873;27;20545;-64
2022/03/30 02:50:20;;;;;;;31.85;12.85;;;;;;;3.44;75.51;100598.41;5124057;27;20040;-66
2022/03/30 02:52:47;;;;;;;30.58;13.95;;;;;;;3.41;75.70;100591.47;5126623;27;20548;-66
2022/03/30 02:55:15;;;;;;;32.45;14.23;;;;;;;3.39;75.82;100593.22;5123738;27;20044;-66
2022/03/30 02:57:42;;;;;;;30.83;13.95;;;;;;;3.37;76.11;100589.75;5123162;27;20097;-67
2022/03/30 03:00:10;;;;;;;28.02;14.40;;;;;;;3.35;76.34;100585.44;5127809;27;20032;-66
2022/03/30 03:02:37;;;;;;;32.25;15.23;;;;;;;3.35;76.23;100586.28;5130140;27;20047;-66
2022/03/30 03:05:04;;;;;;;30.08;13.82;;;;;;;3.35;76.66;100585.44;5129600;27;20039;-67
2022/03/30 03:07:32;;;;;;;31.58;14.02;;;;;;;3.36;76.44;100588.03;5126658;27;20051;-66
2022/03/30 03:10:01;;;;;;;36.50;14.27;;;;;;;3.35;76.36;100596.72;5130931;27;20032;-66
2022/03/30 03:12:28;;;;;;;36.67;15.20;;;;;;;3.33;76.45;100592.38;5132309;27;20079;-66
2022/03/30 03:14:55;;;;;;;40.25;15.48;;;;;;;3.32;76.34;100583.69;5126470;27;20089;-66
2022/03/30 03:17:22;;;;;;;32.00;14.77;;;;;;;3.32;76.77;100583.69;5132419;27;20043;-68
2022/03/30 03:19:49;;;;;;;31.75;13.85;;;;;;;3.33;77.01;100575.00;5118644;27;20040;-67
2022/03/30 03:22:16;;;;;;;30.73;15.05;;;;;;;3.32;76.99;100573.25;5132875;27;20036;-67
2022/03/30 03:24:43;;;;;;;36.35;15.75;;;;;;;3.30;76.81;100564.63;5116849;27;20039;-67
2022/03/30 03:27:11;;;;;;;37.95;15.90;;;;;;;3.27;76.90;100567.22;5127514;27;20033;-67
2022/03/30 03:29:38;;;;;;;39.53;15.57;;;;;;;3.22;76.99;100568.97;5129620;27;20503;-66
2022/03/30 03:32:07;;;;;;;36.97;15.82;;;;;;;3.16;76.84;100567.25;5130753;27;20035;-67
2022/03/30 03:34:34;;;;;;;34.55;15.70;;;;;;;3.09;76.80;100575.97;5120152;27;20048;-67
2022/03/30 03:37:01;;;;;;;44.67;16.85;;;;;;;3.05;77.47;100574.28;5122770;27;20043;-67
2022/03/30 03:39:28;;;;;;;34.75;16.02;;;;;;;2.99;77.44;100575.16;5120038;27;20040;-68
2022/03/30 03:41:55;;;;;;;38.85;14.73;;;;;;;2.97;77.93;100569.06;5130292;27;20040;-67
2022/03/30 03:44:22;;;;;;;38.22;16.15;;;;;;;2.95;78.03;100573.41;5130363;27;20524;-67
2022/03/30 03:46:49;;;;;;;34.33;15.75;;;;;;;2.92;78.07;100568.22;5120001;27;20046;-68
2022/03/30 03:49:16;;;;;;;37.63;15.93;;;;;;;2.89;78.09;100568.25;5114601;27;20421;-68
2022/03/30 03:51:43;;;;;;;36.80;16.33;;;;;;;2.87;77.99;100565.63;5128613;27;20047;-68
2022/03/30 03:54:10;;;;;;;35.78;16.00;;;;;;;2.83;78.24;100574.31;5131146;27;20062;-68
2022/03/30 03:56:37;;;;;;;36.75;16.45;;;;;;;2.81;78.70;100576.06;5116528;27;20048;-68
2022/03/30 03:59:04;;;;;;;37.95;16.38;;;;;;;2.76;78.76;100563.06;5124596;27;20044;-68
2022/03/30 04:01:32;;;;;;;40.67;16.50;;;;;;;2.74;78.60;100566.53;5128053;27;20031;-70
2022/03/30 04:04:02;;;;;;;37.33;15.80;;;;;;;2.70;79.29;100557.84;5127398;27;20086;-68
2022/03/30 04:06:31;;;;;;;37.33;16.98;;;;;;;2.64;79.16;100558.75;5120535;27;20048;-69
2022/03/30 04:09:02;;;;;;;37.00;16.23;;;;;;;2.61;79.62;100555.28;5126767;27;20044;-68
2022/03/30 04:11:29;;;;;;;35.63;16.10;;;;;;;2.58;79.81;100555.28;5124839;27;20051;-68
2022/03/30 04:13:56;;;;;;;40.20;17.23;;;;;;;2.53;79.67;100544.91;5123627;27;20043;-67
2022/03/30 04:16:23;;;;;;;38.65;16.80;;;;;;;2.47;79.57;100535.38;5130984;27;20028;-69
2022/03/30 04:18:51;;;;;;;33.38;15.73;;;;;;;2.44;80.22;100550.13;5130003;27;20522;-68
2022/03/30 04:21:18;;;;;;;44.08;16.60;;;;;;;2.40;80.27;100551.84;5131219;27;20421;-68
2022/03/30 04:23:45;;;;;;;39.08;16.63;;;;;;;2.37;80.12;100550.97;5125168;27;20128;-69
2022/03/30 04:26:12;;;;;;;39.75;16.05;;;;;;;2.34;80.36;100551.84;5122974;27;20043;-68
2022/03/30 04:28:43;;;;;;;39.72;16.88;;;;;;;2.30;80.48;100543.19;5119687;27;20505;-68
2022/03/30 04:31:12;;;;;;;43.38;16.65;;;;;;;2.27;80.54;100547.53;5124980;27;20043;-67
2022/03/30 04:33:39;;;;;;;42.80;16.48;;;;;;;2.24;80.74;100547.53;5124346;27;20043;-67
2022/03/30 04:36:07;;;;;;;38.40;16.92;;;;;;;2.20;80.73;100546.66;5124188;27;20144;-65
2022/03/30 04:38:34;;;;;;;41.50;18.00;;;;;;;2.16;80.71;100548.41;5119974;27;20090;-67
2022/03/30 04:41:01;;;;;;;40.25;16.65;;;;;;;2.13;80.86;100543.19;5130810;27;20032;-67
2022/03/30 04:43:29;;;;;;;33.95;16.00;;;;;;;2.14;81.96;100546.66;5122935;27;20048;-67
2022/03/30 04:45:56;;;;;;;40.95;16.48;;;;;;;2.44;84.73;100548.38;5125621;27;20162;-67
2022/03/30 04:48:24;;;;;;;41.63;17.38;;;;;;;2.74;84.68;100540.50;5115930;27;20048;-67
2022/03/30 04:50:51;;;;;;;37.25;15.90;;;;;;;2.93;84.43;100542.19;5127435;27;20897;-67
2022/03/30 04:53:20;;;;;;;39.58;17.25;;;;;;;3.15;84.03;100546.44;5128122;27;20032;-66
2022/03/30 04:55:47;;;;;;;39.28;16.13;;;;;;;3.25;82.88;100540.31;5121557;27;20441;-67
2022/03/30 04:58:15;;;;;;;32.42;15.13;;;;;;;3.30;81.78;100545.50;5115249;27;20057;-65
2022/03/30 05:00:42;;;;;;;40.95;15.73;;;;;;;3.36;81.79;100545.44;5130823;27;20039;-67
2022/03/30 05:03:09;;;;;;;41.17;15.65;;;;;;;3.37;80.47;100544.56;5130993;27;20038;-67
2022/03/30 05:05:37;;;;;;;38.78;15.98;;;;;;;3.20;78.91;100550.75;5132301;27;20506;-68
2022/03/30 05:08:04;;;;;;;37.40;16.40;;;;;;;2.97;78.37;100544.75;5129947;27;20051;-66
2022/03/30 05:10:32;;;;;;;35.42;16.15;;;;;;;2.72;78.82;100545.69;5127003;27;20040;-67
2022/03/30 05:13:00;;;;;;;41.83;16.40;;;;;;;2.59;79.62;100538.81;5125441;27;20128;-67
2022/03/30 05:15:30;;;;;;;32.60;15.90;;;;;;;2.50;79.76;100547.50;5114605;27;20036;-66
2022/03/30 05:17:57;;;;;;;34.60;15.43;;;;;;;2.42;80.05;100551.84;5125608;27;20054;-66
2022/03/30 05:20:25;;;;;;;39.20;16.70;;;;;;;2.29;79.51;100546.66;5129784;27;20044;-67
2022/03/30 05:22:52;;;;;;;36.63;16.15;;;;;;;2.20;79.61;100550.97;5118800;27;20464;-65
2022/03/30 05:25:19;;;;;;;42.67;17.13;;;;;;;2.15;80.20;100557.06;5133250;27;20044;-66
2022/03/30 05:27:47;;;;;;;43.53;17.23;;;;;;;2.21;80.69;100555.31;5131009;27;20042;-66
2022/03/30 05:30:14;;;;;;;37.33;17.00;;;;;;;2.32;80.67;100558.78;5120046;27;20040;-67
2022/03/30 05:32:45;;;;;;;41.85;16.83;;;;;;;2.37;80.35;100544.06;5123725;27;20500;-65
2022/03/30 05:35:14;;;;;;;37.33;16.20;;;;;;;2.36;79.92;100544.03;5122837;27;20196;-68
2022/03/30 05:37:47;;;;;;;41.35;17.02;;;;;;;2.26;79.51;100541.44;5115017;27;20039;-68
2022/03/30 05:40:16;;;;;;;39.38;17.27;;;;;;;2.19;79.38;100533.66;5110848;27;20532;-66
2022/03/30 05:42:44;;;;;;;39.45;17.08;;;;;;;2.11;79.59;100531.06;5108317;27;20784;-66
2022/03/30 05:45:12;;;;;;;42.95;17.50;;;;;;;2.06;79.81;100527.59;5119166;27;20568;-67
2022/03/30 05:47:39;;;;;;;44.65;17.80;;;;;;;2.03;79.99;100527.59;5120010;27;20552;-66
2022/03/30 05:50:08;;;;;;;43.55;18.70;;;;;;;1.99;79.90;100525.00;5122948;27;20549;-66
2022/03/30 05:52:37;;;;;;;39.72;17.35;;;;;;;1.99;79.99;100527.59;5116996;27;20055;-67
2022/03/30 05:55:05;;;;;;;37.97;16.50;;;;;;;2.01;80.07;100530.19;5120307;27;20447;-64
2022/03/30 05:57:32;;;;;;;42.92;17.13;;;;;;;2.04;80.23;100521.50;5114437;27;20051;-67
2022/03/30 05:59:59;;;;;;;43.20;16.77;;;;;;;2.09;80.23;100528.44;5112279;27;20040;-66
2022/03/30 06:02:26;;;;;;;38.28;16.85;;;;;;;2.12;80.04;100525.84;5115522;27;20048;-67
2022/03/30 06:04:56;;;;;;;42.88;17.80;;;;;;;2.16;79.98;100524.09;5116459;27;20044;-67
2022/03/30 06:07:23;;;;;;;38.72;16.80;;;;;;;2.20;79.87;100519.75;5135510;27;20496;-67
2022/03/30 06:09:50;;;;;;;37.83;16.85;;;;;;;2.24;79.74;100518.91;5130215;27;20044;-67
2022/03/30 06:12:17;;;;;;;38.50;17.48;;;;;;;2.30;79.71;100521.50;5123970;27;20520;-66
2022/03/30 06:14:45;;;;;;;44.22;18.25;;;;;;;2.35;80.00;100524.97;5132918;27;20040;-67
2022/03/30 06:17:15;;;;;;;36.28;17.00;;;;;;;2.42;80.01;100518.88;5133652;27;20036;-66
2022/03/30 06:19:48;;;;;;;39.90;16.95;;;;;;;2.51;79.46;100524.94;5132859;27;20109;-67
2022/03/30 06:22:16;;;;;;;37.55;16.60;;;;;;;2.55;79.34;100518.84;5113664;27;20044;-66
2022/03/30 06:24:44;;;;;;;45.55;18.65;;;;;;;2.63;79.11;100517.97;5120408;27;21167;-66
2022/03/30 06:27:12;;;;;;;40.97;17.23;;;;;;;2.73;78.93;100521.41;5121418;27;20059;-66
2022/03/30 06:29:41;;;;;;;36.80;16.35;;;;;;;2.85;78.79;100517.88;5122943;27;20536;-68
2022/03/30 06:32:09;;;;;;;39.45;16.98;;;;;;;2.99;78.53;100520.47;5122083;27;20074;-67
2022/03/30 06:34:37;;;;;;;37.90;15.80;;;;;;;3.11;78.33;100527.34;5115715;27;20106;-67
2022/03/30 06:37:05;;;;;;;34.05;15.55;;;;;;;3.24;77.97;100531.63;5126544;27;20519;-67
2022/03/30 06:39:33;;;;;;;38.67;15.95;;;;;;;3.38;77.65;100534.16;5134987;27;20043;-65
2022/03/30 06:42:08;;;;;;;35.58;15.25;;;;;;;3.53;77.03;100529.72;5118335;27;20036;-66
2022/03/30 06:44:35;;;;;;;36.40;15.05;;;;;;;3.62;76.30;100529.66;5128964;27;20587;-68
2022/03/30 06:47:03;;;;;;;35.90;15.48;;;;;;;3.69;76.10;100533.97;5124654;27;20036;-67
2022/03/30 06:49:30;;;;;;;33.30;14.35;;;;;;;3.79;75.87;100526.94;5116203;27;20040;-66
2022/03/30 06:51:57;;;;;;;32.85;14.18;;;;;;;3.89;75.80;100533.81;5120262;27;20039;-66
2022/03/30 06:54:25;;;;;;;36.13;14.82;;;;;;;4.02;75.48;100537.19;5122232;27;20068;-67
2022/03/30 06:56:53;;;;;;;34.40;13.98;;;;;;;4.15;75.32;100530.16;5116036;27;20044;-68
2022/03/30 06:59:20;;;;;;;41.10;15.25;;;;;;;4.25;74.62;100537.88;5116548;27;20044;-67
2022/03/30 07:01:47;;;;;;;34.22;14.27;;;;;;;4.33;74.25;100534.31;5115476;27;20047;-67
2022/03/30 07:04:14;;;;;;;30.55;13.52;;;;;;;4.44;74.09;100533.34;5124873;27;20071;-68
2022/03/30 07:10:14;;;;;;;34.72;14.55;;;;;;;4.57;73.96;100534.09;5131047;27;20096;-66
2022/03/30 07:12:14;;;;;;;31.20;14.18;;;;;;;4.93;72.92;100531.94;5130834;27;20091;-67
2022/03/30 07:14:42;;;;;;;32.38;15.05;;;;;;;5.06;72.73;100537.88;5117182;27;20086;-67
2022/03/30 07:17:09;;;;;;;36.20;14.73;;;;;;;5.20;72.61;100538.59;5130450;27;20128;-67
2022/03/30 07:19:38;;;;;;;30.95;14.43;;;;;;;5.36;71.53;100538.38;5115757;27;20048;-67
2022/03/30 07:22:06;;;;;;;30.90;14.20;;;;;;;5.41;70.97;100529.59;5125302;27;20044;-67
2022/03/30 07:24:33;;;;;;;27.02;14.25;;;;;;;5.44;71.04;100531.31;5136286;27;20067;-67
2022/03/30 07:27:00;;;;;;;35.92;14.10;;;;;;;5.52;70.87;100526.84;5130961;27;20044;-66
2022/03/30 07:29:27;;;;;;;29.98;14.68;;;;;;;5.54;70.80;100530.28;5118245;27;20047;-68
2022/03/30 07:31:54;;;;;;;33.60;13.82;;;;;;;5.60;70.79;100529.31;5135464;27;20042;-66
2022/03/30 07:34:21;;;;;;;35.70;15.45;;;;;;;5.71;71.06;100537.03;5135117;27;20051;-67
2022/03/30 07:36:49;;;;;;;34.85;14.82;;;;;;;5.86;70.49;100528.06;5135248;27;20437;-67
2022/03/30 07:39:16;;;;;;;30.83;13.57;;;;;;;6.01;69.80;100524.38;5135557;27;20490;-67
2022/03/30 07:41:44;;;;;;;30.50;13.75;;;;;;;6.12;69.16;100527.69;5122701;27;20106;-67
2022/03/30 07:44:12;;;;;;;31.58;15.07;;;;;;;6.26;69.42;100523.97;5115752;27;20044;-67
2022/03/30 07:46:39;;;;;;;29.10;14.77;;;;;;;6.40;68.62;100514.09;5115078;27;20790;-67
2022/03/30 07:49:07;;;;;;;32.78;14.13;;;;;;;6.45;68.29;100512.28;5124888;27;20051;-67
2022/03/30 07:51:34;;;;;;;32.15;14.73;;;;;;;6.53;68.03;100515.59;5135341;27;20085;-67
2022/03/30 07:54:03;;;;;;;31.98;13.38;;;;;;;6.68;67.34;100513.56;5134947;27;20044;-67
2022/03/30 07:56:31;;;;;;;38.85;14.43;;;;;;;6.76;67.42;100509.06;5135408;27;20048;-67
2022/03/30 07:59:00;;;;;;;28.75;13.85;;;;;;;6.91;66.64;100512.25;5128087;27;20501;-67
2022/03/30 08:01:27;;;;;;;31.40;13.07;;;;;;;6.99;66.54;100512.97;5131950;27;20044;-67
2022/03/30 08:03:56;;;;;;;27.85;12.43;;;;;;;7.11;65.44;100512.72;5135379;27;20035;-67
2022/03/30 08:06:26;;;;;;;28.85;12.35;;;;;;;7.26;65.02;100503.66;5135739;27;20043;-67
2022/03/30 08:08:53;;;;;;;25.17;11.95;;;;;;;7.35;64.02;100507.84;5124162;27;20043;-67
2022/03/30 08:11:21;;;;;;;23.08;11.50;;;;;;;7.48;64.33;100500.56;5114510;27;20036;-67
2022/03/30 08:13:54;;;;;;;26.63;11.95;;;;;;;7.69;63.79;100511.44;5115835;27;20863;-67
2022/03/30 08:16:21;;;;;;;24.77;11.38;;;;;;;7.79;63.05;100518.19;5123495;27;20035;-68
2022/03/30 08:18:49;;;;;;;21.83;11.27;;;;;;;7.81;62.09;100507.66;5123392;27;20048;-67
2022/03/30 08:24:03;;;;;;;24.02;11.25;;;;;;;7.84;62.43;100507.59;5130926;27;20040;-68
2022/03/30 08:26:31;;;;;;;27.00;11.52;;;;;;;7.93;62.43;100508.25;5127166;27;20036;-67
2022/03/30 08:28:58;;;;;;;22.10;9.95;;;;;;;8.07;61.99;100507.00;5114547;27;20055;-67
2022/03/30 08:31:25;;;;;;;17.75;11.02;;;;;;;8.18;61.91;100509.38;5113887;27;20525;-68
2022/03/30 08:33:53;;;;;;;26.17;11.43;;;;;;;8.29;62.18;100509.94;5114684;27;20536;-67
2022/03/30 08:36:20;;;;;;;22.73;11.88;;;;;;;8.52;62.13;100511.13;5120846;27;20068;-67
2022/03/30 08:38:47;;;;;;;18.83;10.45;;;;;;;8.75;61.30;100505.25;5114681;27;20067;-67
2022/03/30 08:41:15;;;;;;;25.23;10.80;;;;;;;8.90;60.89;100497.84;5132172;27;20047;-67
2022/03/30 08:43:44;;;;;;;21.65;10.90;;;;;;;9.05;60.08;100494.78;5133186;27;20036;-67
2022/03/30 08:46:11;;;;;;;22.02;11.13;;;;;;;9.19;59.16;100485.59;5131900;27;20489;-68
2022/03/30 08:48:38;;;;;;;22.45;11.05;;;;;;;9.31;59.52;100487.84;5134674;27;20042;-67
2022/03/30 08:51:08;;;;;;;20.25;11.27;;;;;;;9.46;59.22;100490.00;5124310;27;20071;-68
2022/03/30 08:53:35;;;;;;;23.73;10.18;;;;;;;9.61;58.60;100488.66;5119780;27;20039;-67
2022/03/30 08:56:03;;;;;;;21.92;9.85;;;;;;;9.70;57.64;100484.88;5130793;27;20040;-68
2022/03/30 08:58:31;;;;;;;19.15;10.07;;;;;;;9.53;57.41;100484.56;5117355;27;20051;-67
2022/03/30 09:01:11;;;;;;;19.40;9.77;;;;;;;9.53;57.57;100488.03;5128196;27;20046;-67
2022/03/30 09:04:00;;;;;;;23.75;9.98;;;;;;;9.53;57.13;100481.94;5133980;27;20051;-68
2022/03/30 09:06:49;;;;;;;17.65;9.57;;;;;;;9.51;57.34;100481.13;5132450;27;20114;-67
2022/03/30 09:09:38;;;;;;;19.95;9.15;;;;;;;9.36;57.16;100480.66;5130541;27;20043;-67
2022/03/30 09:12:11;;;;;;;19.23;9.77;;;;;;;9.37;57.15;100477.13;5114471;27;20044;-68
2022/03/30 09:14:42;;;;;;;22.15;9.45;;;;;;;9.39;57.56;100483.22;5133100;27;20489;-67
2022/03/30 09:17:11;;;;;;;20.42;10.10;;;;;;;9.45;57.40;100484.78;5127252;27;20484;-67
2022/03/30 09:19:40;;;;;;;18.25;9.35;;;;;;;9.68;56.53;100478.78;5117285;27;20043;-65
2022/03/30 09:22:10;;;;;;;17.23;9.23;;;;;;;9.87;55.65;100480.84;5134231;27;20084;-67
2022/03/30 09:24:41;;;;;;;22.75;9.65;;;;;;;10.15;55.41;100480.75;5131408;27;20039;-68
2022/03/30 09:27:09;;;;;;;20.55;9.70;;;;;;;10.43;55.18;100481.59;5131933;27;20055;-68
2022/03/30 09:29:37;;;;;;;18.60;9.63;;;;;;;10.84;54.12;100477.47;5128113;27;20535;-68
2022/03/30 09:32:25;;;;;;;20.38;9.70;;;;;;;11.29;53.33;100469.63;5115778;27;20036;-68
2022/03/30 09:34:55;;;;;;;17.58;9.35;;;;;;;11.56;51.60;100472.09;5120443;27;20048;-67
2022/03/30 09:37:23;;;;;;;17.63;10.20;;;;;;;11.81;51.12;100464.03;5129248;27;20146;-68
2022/03/30 09:39:50;;;;;;;19.23;10.40;;;;;;;11.99;51.76;100466.88;5120500;27;20043;-67
2022/03/30 09:42:18;;;;;;;33.10;11.45;;;;;;;11.75;51.23;100465.13;5117192;27;20495;-67
2022/03/30 09:44:54;;;;;;;17.38;9.77;;;;;;;11.54;51.90;100452.84;5121310;27;20051;-67
2022/03/30 09:47:23;;;;;;;26.88;10.55;;;;;;;11.62;52.45;100459.50;5133668;27;20066;-67
2022/03/30 09:49:55;;;;;;;20.23;9.80;;;;;;;11.79;51.44;100457.97;5133740;27;20122;-67
2022/03/30 09:52:30;;;;;;;27.15;10.30;;;;;;;11.92;51.71;100453.88;5114002;27;20056;-66
2022/03/30 09:55:01;;;;;;;21.30;10.02;;;;;;;12.14;51.55;100454.78;5123911;27;20101;-67
2022/03/30 09:57:37;;;;;;;23.80;10.65;;;;;;;12.27;50.80;100454.19;5115666;27;20040;-67
2022/03/30 10:00:15;;;;;;;25.27;10.80;;;;;;;12.29;50.86;100448.81;5119239;27;20051;-67
2022/03/30 10:02:52;;;;;;;20.02;10.57;;;;;;;12.15;50.68;100441.50;5115239;27;20783;-67
2022/03/30 10:05:23;;;;;;;21.85;10.65;;;;;;;11.93;50.61;100455.59;5116895;27;20063;-67
2022/03/30 10:07:50;;;;;;;23.02;10.13;;;;;;;11.71;51.84;100442.44;5133455;27;20039;-67
2022/03/30 10:10:19;;;;;;;20.40;9.88;;;;;;;11.60;51.19;100452.56;5133396;27;20042;-67
2022/03/30 10:12:46;;;;;;;32.75;11.98;;;;;;;11.28;51.66;100441.53;5132484;27;20047;-67
2022/03/30 10:15:14;;;;;;;17.45;9.57;;;;;;;10.91;52.07;100445.59;5133527;27;20032;-67
2022/03/30 10:17:41;;;;;;;23.23;10.23;;;;;;;10.56;52.55;100452.13;5132434;27;20499;-67
2022/03/30 10:20:10;;;;;;;22.00;10.40;;;;;;;10.39;53.38;100446.59;5124536;27;20055;-67
2022/03/30 10:23:19;;;;;;;23.00;10.80;;;;;;;10.38;54.14;100440.47;5132216;27;20054;-66
2022/03/30 10:26:08;;;;;;;68.05;40.30;;;;;;;10.71;54.23;100436.66;5131638;27;20501;-67
2022/03/30 10:28:43;;;;;;;18.02;10.32;;;;;;;11.00;53.27;100438.19;5119617;27;20067;-67
2022/03/30 10:31:11;;;;;;;;;;;;;;;11.46;53.01;100432.03;5126094;27;20051;-67
2022/03/30 10:33:44;;;;;;;17.70;9.75;;;;;;;11.60;52.00;100431.44;5118386;27;19923;-67
2022/03/30 10:36:23;;;;;;;16.77;9.25;;;;;;;11.81;50.30;100421.75;5132447;27;20087;-66
2022/03/30 10:39:15;;;;;;;16.00;10.07;;;;;;;11.73;50.46;100419.47;5122592;27;20047;-67
2022/03/30 10:42:09;;;;;;;18.85;9.48;;;;;;;11.94;49.66;100417.69;5120987;27;20127;-67
2022/03/30 10:44:55;;;;;;;23.58;10.65;;;;;;;12.10;49.13;100422.38;5116408;27;20160;-67
2022/03/30 10:47:26;;;;;;;19.55;9.98;;;;;;;12.15;49.40;100422.16;5130991;27;20050;-67
2022/03/30 10:49:58;;;;;;;19.80;9.00;;;;;;;12.08;49.65;100409.19;5124562;27;20059;-67
2022/03/30 10:52:40;;;;;;;29.42;11.38;;;;;;;12.45;49.20;100413.81;5111716;27;20119;-67
2022/03/30 10:55:13;;;;;;;20.90;9.55;;;;;;;12.72;49.03;100415.19;5115666;27;20048;-67
2022/03/30 10:57:53;;;;;;;19.35;9.30;;;;;;;12.99;48.05;100406.88;5127877;27;20040;-67
2022/03/30 11:00:24;;;;;;;15.48;8.73;;;;;;;13.26;46.16;100405.63;5121504;27;20079;-67
2022/03/30 11:03:08;;;;;;;15.48;9.68;;;;;;;13.46;45.59;100391.47;5139477;27;20130;-67
2022/03/30 11:05:44;;;;;;;14.68;8.27;;;;;;;13.55;44.92;100393.66;5139370;27;20040;-67
2022/03/30 11:08:33;;;;;;;17.05;9.50;;;;;;;13.24;45.50;100389.81;5136182;27;20070;-68
2022/03/30 11:11:02;;;;;;;15.48;9.30;;;;;;;12.92;46.35;100386.09;5126883;27;20044;-68
2022/03/30 11:13:35;;;;;;;18.58;9.38;;;;;;;12.93;46.76;100386.00;5122774;27;20088;-67
2022/03/30 11:16:07;;;;;;;16.70;9.68;;;;;;;13.32;46.15;100378.88;5114965;27;20473;-67
2022/03/30 11:18:54;;;;;;;58.20;12.50;;;;;;;13.24;45.71;100388.97;5112554;27;20040;-68
2022/03/30 11:21:23;;;;;;;16.75;9.18;;;;;;;12.99;46.63;100375.13;5118926;27;20453;-67
2022/03/30 11:24:23;;;;;;;15.88;8.90;;;;;;;12.88;45.92;100374.78;5130524;27;20048;-67
2022/03/30 11:26:50;;;;;;;13.77;7.75;;;;;;;13.01;46.21;100373.28;5113178;27;20103;-68
2022/03/30 11:29:42;;;;;;;16.92;8.70;;;;;;;13.38;45.60;100364.47;5118523;27;20544;-68
2022/03/30 11:32:18;;;;;;;15.07;7.80;;;;;;;13.54;44.84;100352.22;5119964;27;20398;-68
2022/03/30 11:34:52;;;;;;;15.85;8.55;;;;;;;13.42;44.66;100355.47;5135340;27;20040;-68
2022/03/30 11:37:26;;;;;;;16.50;8.80;;;;;;;13.26;45.02;100347.41;5133442;27;20123;-68
2022/03/30 11:40:08;;;;;;;21.70;9.55;;;;;;;13.34;45.12;100343.44;5128970;27;20104;-68